Time;durP1;ratioP1;P1;durP2;ratioP2;P2;SDS_P1;SDS_P2;PMS_P1;PMS_P2;Temp;Humidity;BMP_temperature;BMP_pressure;BME280_temperature;BME280_humidity;BME280_pressure;Samples;Min_cycle;Max_cycle;Signal;HPM_P1;HPM_P2
2023/01/31 00:02:08;;;;;;;25.20;4.37;;;;;;;;;;5100611;28;20520;-85
2023/01/31 00:04:34;;;;;;;23.50;3.88;;;;;;;;;;5106411;27;20398;-85
2023/01/31 00:07:00;;;;;;;19.70;3.40;;;;;;;;;;5098316;27;20420;-85
2023/01/31 00:09:26;;;;;;;27.33;4.18;;;;;;;;;;5112764;28;20410;-86
2023/01/31 00:11:52;;;;;;;23.67;4.03;;;;;;;;;;5111725;27;20398;-85
2023/01/31 00:14:19;;;;;;;22.27;3.92;;;;;;;;;;5098496;27;20414;-86
2023/01/31 00:16:45;;;;;;;20.98;3.88;;;;;;;;;;5112910;28;20511;-85
2023/01/31 00:19:11;;;;;;;21.85;4.30;;;;;;;;;;5095542;28;20408;-85
2023/01/31 00:21:42;;;;;;;18.30;3.50;;;;;;;;;;5120686;27;20427;-84
2023/01/31 00:24:08;;;;;;;19.47;4.20;;;;;;;;;;5101835;28;20915;-85
2023/01/31 00:26:35;;;;;;;26.25;3.90;;;;;;;;;;5112853;28;20408;-84
2023/01/31 00:29:02;;;;;;;21.30;3.33;;;;;;;;;;5096890;27;20451;-84
2023/01/31 00:31:29;;;;;;;22.00;3.60;;;;;;;;;;5095746;28;20767;-85
2023/01/31 00:33:56;;;;;;;25.00;3.58;;;;;;;;;;5097830;27;20513;-85
2023/01/31 00:36:25;;;;;;;18.45;3.45;;;;;;;;;;5112372;28;20420;-85
2023/01/31 00:38:53;;;;;;;20.92;3.72;;;;;;;;;;5095252;27;20410;-85
2023/01/31 00:41:19;;;;;;;20.70;3.63;;;;;;;;;;5122581;27;20420;-85
2023/01/31 00:43:46;;;;;;;23.08;4.20;;;;;;;;;;5111998;27;20430;-85
2023/01/31 00:46:12;;;;;;;19.48;3.35;;;;;;;;;;5094907;28;20411;-85
2023/01/31 00:48:38;;;;;;;23.65;3.63;;;;;;;;;;5127541;27;20405;-85
2023/01/31 00:51:05;;;;;;;18.07;3.20;;;;;;;;;;5112155;27;20546;-85
2023/01/31 00:53:31;;;;;;;22.23;3.20;;;;;;;;;;5100847;28;20400;-85
2023/01/31 00:56:08;;;;;;;22.58;3.85;;;;;;;;;;5110124;27;20419;-85
2023/01/31 00:58:36;;;;;;;15.93;3.83;;;;;;;;;;5114267;27;20824;-85
2023/01/31 01:01:25;;;;;;;21.75;3.67;;;;;;;;;;5106241;27;20746;-85
2023/01/31 01:03:52;;;;;;;20.03;3.83;;;;;;;;;;5101256;27;20420;-85
2023/01/31 01:06:18;;;;;;;19.92;3.40;;;;;;;;;;5112716;27;20412;-85
2023/01/31 01:08:44;;;;;;;19.27;3.03;;;;;;;;;;5094770;28;20424;-86
2023/01/31 01:11:12;;;;;;;18.35;3.85;;;;;;;;;;5114792;27;20405;-84
2023/01/31 01:13:39;;;;;;;21.60;4.15;;;;;;;;;;5094928;28;20400;-85
2023/01/31 01:16:06;;;;;;;17.38;3.03;;;;;;;;;;5087115;28;20806;-85
2023/01/31 01:18:34;;;;;;;22.83;3.90;;;;;;;;;;5111845;28;20915;-85
2023/01/31 01:21:10;;;;;;;23.17;3.42;;;;;;;;;;5112299;27;20406;-86
2023/01/31 01:23:37;;;;;;;18.97;3.63;;;;;;;;;;5102130;28;20389;-85
2023/01/31 01:26:04;;;;;;;22.80;4.43;;;;;;;;;;5106834;27;20442;-85
2023/01/31 01:28:33;;;;;;;19.23;3.53;;;;;;;;;;5126321;27;20901;-86
2023/01/31 01:30:59;;;;;;;22.42;3.53;;;;;;;;;;5121782;27;20418;-86
2023/01/31 01:33:25;;;;;;;21.27;3.42;;;;;;;;;;5111975;27;20403;-86
2023/01/31 01:35:51;;;;;;;17.20;3.28;;;;;;;;;;5090194;28;20416;-85
2023/01/31 01:38:20;;;;;;;18.63;3.22;;;;;;;;;;5111415;28;20396;-85
2023/01/31 01:40:46;;;;;;;20.55;3.70;;;;;;;;;;5126362;27;20446;-86
2023/01/31 01:43:12;;;;;;;19.08;3.55;;;;;;;;;;5115410;27;20477;-85
2023/01/31 01:45:38;;;;;;;18.23;3.10;;;;;;;;;;5125731;27;20403;-85
2023/01/31 01:48:07;;;;;;;15.87;3.10;;;;;;;;;;5112111;28;20419;-85
2023/01/31 01:50:39;;;;;;;18.40;3.60;;;;;;;;;;5111803;28;20430;-85
2023/01/31 01:53:09;;;;;;;17.40;3.10;;;;;;;;;;5096582;28;20404;-85
2023/01/31 01:55:35;;;;;;;16.27;3.10;;;;;;;;;;5106371;28;20420;-85
2023/01/31 01:58:05;;;;;;;17.70;3.28;;;;;;;;;;5100228;28;20458;-85
2023/01/31 02:00:33;;;;;;;14.90;3.22;;;;;;;;;;5110996;28;20894;-85
2023/01/31 02:03:00;;;;;;;20.20;3.40;;;;;;;;;;5095621;28;21023;-85
2023/01/31 02:05:30;;;;;;;24.40;3.40;;;;;;;;;;5112614;28;20477;-85
2023/01/31 02:07:56;;;;;;;20.73;3.83;;;;;;;;;;5106553;28;20412;-84
2023/01/31 02:10:26;;;;;;;21.83;3.75;;;;;;;;;;5109985;28;20980;-85
2023/01/31 02:12:52;;;;;;;17.98;3.33;;;;;;;;;;5094371;28;20415;-85
2023/01/31 02:15:19;;;;;;;20.73;3.88;;;;;;;;;;5126136;28;20509;-85
2023/01/31 02:17:45;;;;;;;19.33;3.53;;;;;;;;;;5125521;27;20417;-85
2023/01/31 02:20:14;;;;;;;19.55;3.45;;;;;;;;;;5100568;28;20419;-85
2023/01/31 02:22:59;;;;;;;18.40;3.47;;;;;;;;;;5099766;28;20441;-85
2023/01/31 02:25:32;;;;;;;22.83;4.40;;;;;;;;;;5134239;27;20462;-85
2023/01/31 02:28:04;;;;;;;16.70;3.60;;;;;;;;;;5098180;28;20416;-85
2023/01/31 02:30:39;;;;;;;16.25;3.30;;;;;;;;;;5096514;27;20443;-85
2023/01/31 02:33:14;;;;;;;16.60;3.00;;;;;;;;;;5128548;27;20411;-85
2023/01/31 02:35:53;;;;;;;14.97;2.80;;;;;;;;;;5100705;28;20518;-85
2023/01/31 02:38:29;;;;;;;18.45;2.90;;;;;;;;;;5124552;27;20414;-85
2023/01/31 02:41:14;;;;;;;17.42;3.42;;;;;;;;;;5118840;27;20800;-85
2023/01/31 02:46:48;;;;;;;16.38;3.38;;;;;;;;;;5124566;27;20420;-85
2023/01/31 02:49:33;;;;;;;17.92;3.40;;;;;;;;;;5125296;27;20543;-85
2023/01/31 02:52:15;;;;;;;21.38;3.10;;;;;;;;;;5123028;27;20459;-85
2023/01/31 02:57:28;;;;;;;21.55;3.92;;;;;;;;;;5124598;27;20419;-84
2023/01/31 02:59:55;;;;;;;14.80;2.90;;;;;;;;;;5102681;28;20419;-85
2023/01/31 03:02:22;;;;;;;16.52;3.42;;;;;;;;;;5097443;27;20467;-84
2023/01/31 03:04:48;;;;;;;22.20;3.53;;;;;;;;;;5096872;27;20407;-85
2023/01/31 03:07:25;;;;;;;19.25;3.88;;;;;;;;;;5096346;28;20432;-85
2023/01/31 03:10:22;;;;;;;20.60;3.38;;;4.00;99.90;;;;;;5125445;27;20910;-85
2023/01/31 03:12:57;;;;;;;22.35;3.63;;;;;;;;;;5125690;27;20403;-85
2023/01/31 03:18:23;;;;;;;23.95;3.60;;;;;;;;;;5115806;27;20906;-85
2023/01/31 03:20:55;;;;;;;16.73;3.08;;;;;;;;;;5113696;27;20416;-85
2023/01/31 03:23:25;;;;;;;18.85;3.20;;;;;;;;;;5096729;28;20396;-85
2023/01/31 03:25:52;;;;;;;16.57;3.17;;;;;;;;;;5117096;27;20475;-84
2023/01/31 03:28:20;;;;;;;19.33;3.83;;;;;;;;;;5099077;28;20416;-85
2023/01/31 03:31:01;;;;;;;20.40;3.60;;;;;;;;;;5098341;28;20403;-85
2023/01/31 03:33:30;;;;;;;20.60;3.80;;;;;;;;;;5097089;28;20827;-84
2023/01/31 03:35:57;;;;;;;18.33;3.63;;;;;;;;;;5123499;27;20443;-85
2023/01/31 03:38:29;;;;;;;20.27;3.70;;;;;;;;;;5114815;27;20438;-86
2023/01/31 03:41:22;;;;;;;19.00;3.47;;;;;;;;;;5096207;27;20863;-85
2023/01/31 03:43:57;;;;;;;17.90;2.90;;;;;;;;;;5102428;27;20498;-85
2023/01/31 03:46:27;;;;;;;21.10;2.92;;;;;;;;;;5116390;27;20746;-84
2023/01/31 03:48:55;;;;;;;19.38;3.08;;;;;;;;;;5123656;27;20767;-84
2023/01/31 03:51:25;;;;;;;19.83;3.50;;;;;;;;;;5105932;27;20418;-85
2023/01/31 03:53:57;;;;;;;18.67;3.28;;;;;;;;;;5124472;27;20422;-85
2023/01/31 03:56:37;;;;;;;20.23;4.10;;;;;;;;;;5133073;27;20468;-85
2023/01/31 03:59:06;;;;;;;17.75;3.13;;;;;;;;;;5114973;27;20485;-84
2023/01/31 04:01:35;;;;;;;19.75;3.80;;;;;;;;;;5101623;27;20433;-84
2023/01/31 04:04:05;;;;;;;24.15;4.22;;;;;;;;;;5122744;27;20465;-85
2023/01/31 04:06:31;;;;;;;24.13;4.15;;;;;;;;;;5124986;27;20432;-84
2023/01/31 04:08:57;;;;;;;25.13;4.10;;;;;;;;;;5107930;28;20412;-84
2023/01/31 04:11:24;;;;;;;19.60;4.15;;;;;;;;;;5102150;27;20485;-84
2023/01/31 04:13:50;;;;;;;29.00;4.43;;;;;;;;;;5131927;27;20423;-86
2023/01/31 04:16:17;;;;;;;21.67;4.80;;;;;;;;;;5109062;27;20522;-84
2023/01/31 04:18:43;;;;;;;19.92;4.15;;;;;;;;;;5116599;27;20735;-85
2023/01/31 04:21:09;;;;;;;26.58;4.50;;;;;;;;;;5085086;27;20410;-84
2023/01/31 04:23:36;;;;;;;25.77;4.53;;;;;;;;;;5124456;27;20742;-84
2023/01/31 04:26:02;;;;;;;28.02;4.70;;;;;;;;;;5115201;27;20845;-84
2023/01/31 04:28:28;;;;;;;27.85;5.00;;;;;;;;;;5099555;27;20420;-84
2023/01/31 04:30:54;;;;;;;26.23;4.22;;;;;;;;;;5118447;27;20754;-85
2023/01/31 04:33:20;;;;;;;26.52;4.70;;;;;;;;;;5119477;27;20404;-84
2023/01/31 04:35:47;;;;;;;26.10;4.97;;;;;;;;;;5116228;27;20974;-85
2023/01/31 04:38:13;;;;;;;31.08;5.45;;;;;;;;;;5135303;27;20424;-85
2023/01/31 04:40:39;;;;;;;30.42;5.50;;;;;;;;;;5104648;27;20415;-84
2023/01/31 04:43:05;;;;;;;30.90;6.18;;;;;;;;;;5105100;27;20441;-85
2023/01/31 04:45:31;;;;;;;31.00;5.47;;;;;;;;;;5101226;27;20415;-84
2023/01/31 04:47:57;;;;;;;26.65;5.13;;;;;;;;;;5129712;27;20440;-86
2023/01/31 04:50:23;;;;;;;27.35;5.55;;;;;;;;;;5097298;27;20418;-86
2023/01/31 04:52:50;;;;;;;29.40;6.22;;;;;;;;;;5140356;27;20398;-85
2023/01/31 04:55:16;;;;;;;31.38;5.75;;;;;;;;;;5100557;27;20467;-85
2023/01/31 04:57:42;;;;;;;29.27;6.05;;;;;;;;;;5136623;27;20438;-86
2023/01/31 05:00:09;;;;;;;27.60;5.05;;;;;;;;;;5119913;27;20420;-85
2023/01/31 05:02:35;;;;;;;33.40;5.67;;;;;;;;;;5138615;27;20402;-86
2023/01/31 05:05:02;;;;;;;35.92;6.82;;;;;;;;;;5113909;27;20414;-84
2023/01/31 05:07:28;;;;;;;28.83;5.70;;;;;;;;;;5144629;27;20387;-86
2023/01/31 05:09:54;;;;;;;32.83;6.13;;;;;;;;;;5121876;27;20407;-87
2023/01/31 05:12:20;;;;;;;26.50;5.70;;;;;;;;;;5109213;28;20416;-85
2023/01/31 05:14:46;;;;;;;27.33;5.47;;;;;;;;;;5111986;27;20416;-84
2023/01/31 05:17:12;;;;;;;27.25;5.28;;;;;;;;;;5150593;27;20426;-84
2023/01/31 05:19:39;;;;;;;22.05;5.65;;;;;;;;;;5150864;27;20901;-85
2023/01/31 05:22:05;;;;;;;29.10;5.67;;;;;;;;;;5133815;28;20412;-84
2023/01/31 05:24:32;;;;;;;33.22;6.03;;;;;;;;;;5129721;27;20446;-85
2023/01/31 05:27:00;;;;;;;27.83;6.67;;;;;;;;;;5123250;27;20539;-83
2023/01/31 05:29:26;;;;;;;25.92;5.68;;;;;;;;;;5124924;27;20441;-84
2023/01/31 05:31:53;;;;;;;24.55;5.40;;;;;;;;;;5107748;28;20427;-84
2023/01/31 05:34:20;;;;;;;28.23;5.38;;;;;;;;;;5129157;27;20416;-84
2023/01/31 05:36:46;;;;;;;26.50;5.50;;;;;;;;;;5134647;27;20478;-84
2023/01/31 05:39:12;;;;;;;24.08;5.30;;;;;;;;;;5140512;27;20394;-84
2023/01/31 05:41:38;;;;;;;30.57;5.10;;;;;;;;;;5117644;27;20418;-84
2023/01/31 05:44:10;;;;;;;26.27;6.00;;;;;;;;;;5125126;27;20444;-84
2023/01/31 05:46:37;;;;;;;29.03;5.63;;;;;;;;;;5107112;28;20447;-86
2023/01/31 05:49:03;;;;;;;28.05;5.82;;;;;;;;;;5125684;27;20479;-85
2023/01/31 05:51:29;;;;;;;28.00;5.50;;;;;;;;;;5115265;27;20420;-84
2023/01/31 05:53:56;;;;;;;25.63;5.67;;;;;;;;;;5097309;28;20468;-85
2023/01/31 05:56:22;;;;;;;32.88;6.10;;;;;;;;;;5115426;28;20417;-84
2023/01/31 05:58:49;;;;;;;28.42;6.05;;;;;;;;;;5120113;28;20497;-85
2023/01/31 06:01:23;;;;;;;28.20;5.95;;;;;;;;;;5115708;28;20423;-85
2023/01/31 06:03:49;;;;;;;29.20;6.25;;;;;;;;;;5125127;27;20416;-86
2023/01/31 06:06:16;;;;;;;30.45;6.10;;;;;;;;;;5111425;27;20421;-84
2023/01/31 06:08:42;;;;;;;31.08;6.15;;;;;;;;;;5128846;27;20407;-84
2023/01/31 06:11:12;;;;;;;25.90;5.93;;;;;;;;;;5123320;27;20549;-84
2023/01/31 06:13:41;;;;;;;26.13;6.28;;;;;;;;;;5119264;27;20444;-87
2023/01/31 06:16:07;;;;;;;30.10;6.50;;;;;;;;;;5101334;27;20427;-87
2023/01/31 06:18:33;;;;;;;25.30;5.78;;;;;;;;;;5104190;27;20440;-84
2023/01/31 06:20:59;;;;;;;30.67;6.57;;;;;;;;;;5126626;27;20511;-84
2023/01/31 06:23:25;;;;;;;36.60;6.55;;;;;;;;;;5130091;27;20421;-83
2023/01/31 06:25:52;;;;;;;30.35;6.72;;;;;;;;;;5100169;27;20442;-85
2023/01/31 06:28:18;;;;;;;32.15;6.68;;;;;;;;;;5130735;27;20420;-86
2023/01/31 06:30:44;;;;;;;34.15;6.25;;;;;;;;;;5133935;27;20423;-85
2023/01/31 06:33:11;;;;;;;29.63;6.57;;;;;;;;;;5123231;27;20416;-83
2023/01/31 06:35:37;;;;;;;27.17;6.45;;;;;;;;;;5143501;27;20437;-83
2023/01/31 06:38:04;;;;;;;29.77;6.03;;;;;;;;;;5124646;27;20412;-83
2023/01/31 06:40:30;;;;;;;31.05;6.05;;;;;;;;;;5142868;27;20412;-83
2023/01/31 06:42:56;;;;;;;26.73;5.63;;;;;;;;;;5144208;27;20434;-84
2023/01/31 06:45:22;;;;;;;24.52;5.63;;;;;;;;;;5148275;27;20426;-84
2023/01/31 06:47:48;;;;;;;27.38;5.55;;;;;;;;;;5139918;27;20431;-82
2023/01/31 06:50:15;;;;;;;24.55;5.53;;;;;;;;;;5114844;28;20408;-83
2023/01/31 06:52:41;;;;;;;24.58;5.57;;;;;;;;;;5105708;27;20414;-84
2023/01/31 06:55:07;;;;;;;26.35;5.85;;;;;;;;;;5121574;27;20416;-84
2023/01/31 06:57:33;;;;;;;22.25;5.22;;;;;;;;;;5098248;27;20409;-85
2023/01/31 06:59:59;;;;;;;25.77;6.18;;;;;;;;;;5109833;28;20412;-84
2023/01/31 07:02:26;;;;;;;29.20;5.53;;;;;;;;;;5111637;27;20457;-86
2023/01/31 07:04:52;;;;;;;21.60;5.15;;;;;;;;;;5140146;27;20783;-84
2023/01/31 07:07:18;;;;;;;29.50;5.20;;;;;;;;;;5130679;27;20486;-84
2023/01/31 07:09:44;;;;;;;26.08;5.47;;;;;;;;;;5127446;27;20433;-85
2023/01/31 07:12:10;;;;;;;22.02;4.60;;;;;;;;;;5115777;27;20506;-85
2023/01/31 07:14:36;;;;;;;25.90;5.70;;;;;;;;;;5126314;27;20398;-84
2023/01/31 07:17:02;;;;;;;24.55;5.38;;;;;;;;;;5144453;27;20418;-84
2023/01/31 07:19:29;;;;;;;23.53;4.70;;;;;;;;;;5105724;27;20515;-86
2023/01/31 07:21:55;;;;;;;23.67;5.20;;;;;;;;;;5120493;27;20406;-87
2023/01/31 07:24:21;;;;;;;30.95;5.40;;;;;;;;;;5101931;27;20460;-84
2023/01/31 07:26:47;;;;;;;22.42;4.75;;;;;;;;;;5121274;27;20419;-84
2023/01/31 07:29:13;;;;;;;28.77;5.40;;;;;;;;;;5098292;27;20409;-86
2023/01/31 07:31:39;;;;;;;24.30;4.72;;;;;;;;;;5100758;28;20416;-85
2023/01/31 07:34:05;;;;;;;22.95;5.82;;;;;;;;;;5114512;27;20497;-83
2023/01/31 07:36:31;;;;;;;23.60;5.25;;;;;;;;;;5116478;27;20427;-86
2023/01/31 07:38:58;;;;;;;26.00;5.60;;;;;;;;;;5119786;27;20772;-79
2023/01/31 07:41:25;;;;;;;20.90;4.38;;;;;;;;;;5105715;27;20410;-78
2023/01/31 07:43:51;;;;;;;19.35;4.78;;;;;;;;;;5097696;28;20419;-78
2023/01/31 07:46:18;;;;;;;18.60;4.53;;;;;;;;;;5120499;27;20461;-78
2023/01/31 07:48:44;;;;;;;19.67;4.72;;;;;;;;;;5096445;28;20416;-79
2023/01/31 07:51:10;;;;;;;23.52;4.95;;;;;;;;;;5106678;27;20476;-81
2023/01/31 07:53:40;;;;;;;22.70;4.38;;;;;;;;;;5102539;27;20427;-77
2023/01/31 07:56:17;;;;;;;24.95;5.07;;;;;;;;;;5122642;27;20426;-78
2023/01/31 07:58:44;;;;;;;22.80;4.68;;;;;;;;;;5099839;28;20423;-76
2023/01/31 08:04:03;;;;;;;19.52;4.47;;;;;;;;;;5122891;27;20420;-78
2023/01/31 08:06:29;;;;;;;21.85;4.00;;;;;;;;;;5116760;27;20489;-80
2023/01/31 08:08:56;;;;;;;20.80;5.15;;;;;;;;;;5102606;28;20771;-78
2023/01/31 08:11:22;;;;;;;21.00;4.30;;;;;;;;;;5094551;28;20412;-79
2023/01/31 08:13:48;;;;;;;20.85;4.22;;;;;;;;;;5096868;28;20412;-79
2023/01/31 08:16:14;;;;;;;22.77;4.38;;;;;;;;;;5120858;27;20509;-80
2023/01/31 08:18:41;;;;;;;20.73;4.55;;;;;;;;;;5099480;27;20743;-84
2023/01/31 08:21:11;;;;;;;17.92;4.38;;;;;;;;;;5112220;28;20463;-82
2023/01/31 08:23:39;;;;;;;19.53;4.60;;;;;;;;;;5099689;27;20456;-80
2023/01/31 08:26:09;;;;;;;19.48;4.07;;;;;;;;;;5104143;27;20974;-82
2023/01/31 08:28:36;;;;;;;22.10;4.40;;;;;;;;;;5102460;27;20431;-80
2023/01/31 08:31:02;;;;;;;16.15;3.95;;;;;;;;;;5116159;27;20415;-84
2023/01/31 08:33:28;;;;;;;19.83;3.80;;;;;;;;;;5107343;27;20416;-83
2023/01/31 08:35:54;;;;;;;15.85;4.35;;;;;;;;;;5105755;27;20419;-84
2023/01/31 08:38:21;;;;;;;20.67;3.93;;;;;;;;;;5098894;28;20487;-85
2023/01/31 08:40:47;;;;;;;21.90;4.15;;;;;;;;;;5106372;27;20414;-85
2023/01/31 08:43:19;;;;;;;18.70;4.03;;;;;;;;;;5114653;27;20415;-86
2023/01/31 08:45:51;;;;;;;16.95;4.40;;;;;;;;;;5112900;28;20412;-83
2023/01/31 08:48:23;;;;;;;15.40;3.70;;;;;;;;;;5105966;27;20912;-82
2023/01/31 08:50:49;;;;;;;18.03;3.87;;;;;;;;;;5103317;27;20444;-82
2023/01/31 08:53:23;;;;;;;20.08;4.20;;;;;;;;;;5105247;27;20489;-83
2023/01/31 08:56:05;;;;;;;16.45;3.80;;;;;;;;;;5095591;28;20420;-84
2023/01/31 08:58:32;;;;;;;19.30;3.97;;;;;;;;;;5106771;27;20412;-84
2023/01/31 09:01:20;;;;;;;20.08;3.83;;;;;;;;;;5105391;27;22452;-86
2023/01/31 09:03:47;;;;;;;16.25;3.75;;;;;;;;;;5098436;27;20414;-85
2023/01/31 09:06:20;;;;;;;17.73;3.67;;;;;;;;;;5105213;28;20522;-84
2023/01/31 09:08:49;;;;;;;17.05;4.03;;;;;;;;;;5100067;27;20425;-84
2023/01/31 09:11:17;;;;;;;17.10;3.85;;;;;;;;;;5100159;27;20428;-84
2023/01/31 09:13:50;;;;;;;18.73;4.15;;;;;;;;;;5130133;27;20420;-83
2023/01/31 09:16:27;;;;;;;20.00;4.10;;;;;;;;;;5102021;27;20466;-82
2023/01/31 09:19:22;;;;;;;17.95;4.03;;;;;;;;;;5095898;28;20400;-83
2023/01/31 09:21:58;;;;;;;20.02;4.28;;;;;;;;;;5099633;28;20416;-83
2023/01/31 09:24:25;;;;;;;17.40;4.07;;;;;;;;;;5114998;27;20401;-83
2023/01/31 09:26:57;;;;;;;14.90;3.88;;;;;;;;;;5100437;28;20437;-83
2023/01/31 09:29:56;;;;;;;17.70;4.10;;;;;;;;;;5090239;27;20417;-83
2023/01/31 09:32:25;;;;;;;24.90;4.35;;;;;;;;;;5098043;28;20496;-83
2023/01/31 09:34:51;;;;;;;19.17;3.90;;;;;;;;;;5094447;27;20768;-82
2023/01/31 09:37:49;;;;;;;20.77;4.57;;;;;;;;;;5119636;27;20973;-83
2023/01/31 09:40:29;;;;;;;22.02;4.30;;;;;;;;;;5102296;27;20905;-82
2023/01/31 09:45:56;;;;;;;22.17;4.63;;;;;;;;;;5114905;27;20511;-83
2023/01/31 09:48:34;;;;;;;18.92;4.15;;;;;;;;;;5105486;28;20411;-87
2023/01/31 09:51:08;;;;;;;20.90;4.70;;;;;;;;;;5101559;28;20438;-85
2023/01/31 09:53:36;;;;;;;22.58;5.43;;;;;;;;;;5104941;27;20414;-85
2023/01/31 09:56:24;;;;;;;22.50;4.82;;;;;;;;;;5116183;28;20421;-84
2023/01/31 09:59:09;;;;;;;16.83;4.25;;;;;;;;;;5093984;28;20421;-84
2023/01/31 10:01:42;;;;;;;18.45;4.53;;;;;;;;;;5125332;27;20430;-84
2023/01/31 10:04:29;;;;;;;21.52;4.40;;;;;;;;;;5111027;28;20428;-84
2023/01/31 10:07:08;;;;;;;27.52;5.20;;;;;;;;;;5116752;27;20420;-82
2023/01/31 10:09:35;;;;;;;22.27;4.78;;;;;;;;;;5106041;28;20482;-81
2023/01/31 10:12:11;;;;;;;25.15;5.65;;;;;;;;;;5114871;28;20423;-82
2023/01/31 10:14:40;;;;;;;21.42;5.10;;;;;;;;;;5114219;28;20408;-82
2023/01/31 10:17:12;;;;;;;24.60;4.93;;;;;;;;;;5100018;28;20420;-82
2023/01/31 10:19:49;;;;;;;25.48;5.30;;;;;;;;;;5093273;28;20503;-82
2023/01/31 10:22:20;;;;;;;29.15;5.90;;;;;;;;;;5099297;28;20418;-82
2023/01/31 10:24:54;;;;;;;23.23;5.18;;;;;;;;;;5103089;28;20406;-81
2023/01/31 10:27:35;;;;;;;31.63;5.90;;;;;;;;;;5119993;27;20760;-81
2023/01/31 10:30:04;;;;;;;23.38;5.13;;;;;;;;;;5096339;28;20408;-80
2023/01/31 10:32:39;;;;;;;26.40;5.68;;;;;;;;;;5095696;28;20419;-82
2023/01/31 10:35:23;;;;;;;25.52;5.03;;;;;;;;;;5104621;28;20411;-80
2023/01/31 10:37:57;;;;;;;20.20;4.35;;;;;;;;;;5110687;28;20410;-80
2023/01/31 10:40:28;;;;;;;25.10;5.90;;;;;;;;;;5097763;28;20416;-80
2023/01/31 10:42:59;;;;;;;24.55;5.53;;;;;;;;;;5110550;28;20501;-79
2023/01/31 10:45:29;;;;;;;25.40;5.25;;;;;;;;;;5126261;27;20410;-80
2023/01/31 10:48:13;;;;;;;28.10;5.82;;;;;;;;;;5132497;27;20410;-79
2023/01/31 10:51:01;;;;;;;24.17;5.80;;;;;;;;;;5106612;28;20423;-79
2023/01/31 10:53:27;;;;;;;31.75;5.47;;;;;;;;;;5117701;27;20416;-81
2023/01/31 10:56:09;;;;;;;29.63;5.80;;;;;;;;;;5114066;27;20418;-80
2023/01/31 10:58:36;;;;;;;22.60;4.88;;;;;;;;;;5099494;28;20412;-81
2023/01/31 11:01:07;;;;;;;23.10;5.35;;;;;;;;;;5101427;28;20423;-80
2023/01/31 11:03:33;;;;;;;27.33;5.10;;;;;;;;;;5104045;27;20416;-78
2023/01/31 11:06:00;;;;;;;28.27;5.17;;;;;;;;;;5122370;27;20436;-78
2023/01/31 11:08:35;;;;;;;23.67;5.22;;;;;;;;;;5107413;27;20428;-78
2023/01/31 11:11:06;;;;;;;29.85;5.63;;;;;;;;;;5114388;27;20432;-78
2023/01/31 11:13:32;;;;;;;23.17;5.20;;;;;;;;;;5096443;27;20789;-78
2023/01/31 11:15:58;;;;;;;26.15;5.10;;;;;;;;;;5107379;27;20426;-78
2023/01/31 11:18:32;;;;;;;28.15;5.82;;;;;;;;;;5110460;27;20412;-77
2023/01/31 11:21:00;;;;;;;27.38;5.72;;;;;;;;;;5132221;27;20909;-76
2023/01/31 11:23:28;;;;;;;25.83;5.55;;;;;;;;;;5110341;28;20417;-78
2023/01/31 11:25:55;;;;;;;29.38;5.00;;;;;;;;;;5101230;28;20420;-78
2023/01/31 11:28:40;;;;;;;27.20;5.30;;;;;;;;;;5114385;27;20413;-78
2023/01/31 11:31:08;;;;;;;28.52;5.28;;;;;;;;;;5095899;28;20412;-78
2023/01/31 11:33:38;;;;;;;23.90;5.27;;;;;;;;;;5100847;28;20423;-78
2023/01/31 11:36:09;;;;;;;19.75;4.78;;;;;;;;;;5103564;27;20411;-78
2023/01/31 11:38:35;;;;;;;29.05;5.18;;;;;;;;;;5120065;27;20504;-78
2023/01/31 11:41:01;;;;;;;24.17;5.20;;;;;;;;;;5108842;27;20847;-77
2023/01/31 11:43:30;;;;;;;24.33;4.93;;;;;;;;;;5113175;27;20407;-78
2023/01/31 11:45:57;;;;;;;18.50;4.13;;;;;;;;;;5102583;27;20465;-78
2023/01/31 11:48:28;;;;;;;25.55;5.10;;;;;;;;;;5117408;27;20519;-75
2023/01/31 11:50:56;;;;;;;23.75;4.75;;;;;;;;;;5113926;27;20574;-77
2023/01/31 11:53:24;;;;;;;18.13;4.78;;;;;;;;;;5102804;27;20410;-77
2023/01/31 11:55:53;;;;;;;21.45;4.88;;;;;;;;;;5094660;28;20432;-76
2023/01/31 11:58:34;;;;;;;20.75;4.20;;;;;;;;;;5102072;27;20478;-76
2023/01/31 12:01:01;;;;;;;22.67;5.10;;;;;;;;;;5114037;27;20421;-76
2023/01/31 12:03:28;;;;;;;22.88;4.22;;;;;;;;;;5097818;28;20509;-76
2023/01/31 12:06:03;;;;;;;24.02;4.47;;;;;;;;;;5114064;27;20423;-80
2023/01/31 12:08:42;;;;;;;20.58;4.38;;;;;;;;;;5106153;27;20487;-80
2023/01/31 12:11:23;;;;;;;22.98;4.70;;;;;;;;;;5120286;27;20417;-82
2023/01/31 12:14:14;;;;;;;19.65;4.05;;;;;;;;;;5111859;27;20453;-81
2023/01/31 12:17:02;;;;;;;20.83;4.47;;;;;;;;;;5115813;27;20470;-81
2023/01/31 12:19:34;;;;;;;22.30;4.57;;;;;;;;;;5111102;28;20453;-83
2023/01/31 12:22:21;;;;;;;22.20;4.47;;;;;;;;;;5095982;27;20444;-79
2023/01/31 12:24:50;;;;;;;20.25;3.85;;;;;;;;;;5117147;27;20519;-79
2023/01/31 12:27:24;;;;;;;22.35;3.95;;;;;;;;;;5118405;27;20477;-79
2023/01/31 12:29:50;;;;;;;22.20;4.15;;;;;;;;;;5104386;27;20426;-79
2023/01/31 12:32:20;;;;;;;20.45;4.55;;;;;;;;;;5111242;27;20420;-79
2023/01/31 12:35:05;;;;;;;15.65;4.00;;;;;;;;;;5101075;27;20473;-79
2023/01/31 12:37:45;;;;;;;18.77;4.50;;;;;;;;;;5119088;27;20413;-78
2023/01/31 12:40:21;;;;;;;19.60;4.45;;;;;;;;;;5110389;27;20833;-78
2023/01/31 12:42:47;;;;;;;16.67;3.60;;;;;;;;;;5118381;27;20420;-79
2023/01/31 12:45:26;;;;;;;19.45;4.25;;;;;;;;;;5101702;28;20420;-79
2023/01/31 12:48:18;;;;;;;21.92;4.32;;;;;;;;;;5099612;28;20417;-79
2023/01/31 12:51:01;;;;;;;19.48;4.25;;;8.90;99.90;;;;;;5127196;27;20411;-80
2023/01/31 12:53:39;;;;;;;19.55;4.20;;;;;;;;;;5115322;27;20428;-79
2023/01/31 12:56:12;;;;;;;18.55;3.72;;;;;;;;;;5104136;28;20439;-80
2023/01/31 12:58:41;;;;;;;18.77;4.03;;;;;;;;;;5118260;27;20454;-79
2023/01/31 13:01:10;;;;;;;18.92;4.47;;;;;;;;;;5122302;27;20415;-86
2023/01/31 13:03:39;;;;;;;17.70;3.83;;;;;;;;;;5120634;27;20412;-86
2023/01/31 13:06:05;;;;;;;17.90;3.97;;;;;;;;;;5118151;27;20473;-85
2023/01/31 13:08:32;;;;;;;17.42;4.57;;;;;;;;;;5104978;27;20420;-87
2023/01/31 13:11:02;;;;;;;21.00;4.15;;;;;;;;;;5125059;27;20453;-86
2023/01/31 13:13:48;;;;;;;19.73;4.28;;;;;;;;;;5097286;28;20450;-87
2023/01/31 13:16:22;;;;;;;16.53;4.07;;;8.60;99.90;;;;;;5118850;27;20460;-87
2023/01/31 13:18:50;;;;;;;20.05;4.07;;;;;;;;;;5129400;27;20447;-85
2023/01/31 13:21:18;;;;;;;21.73;4.90;;;;;;;;;;5116530;27;20419;-87
2023/01/31 13:23:47;;;;;;;17.63;3.83;;;;;;;;;;5115254;27;20484;-88
2023/01/31 13:26:17;;;;;;;20.45;3.95;;;;;;;;;;5128989;27;20412;-87
2023/01/31 13:28:46;;;;;;;18.63;4.22;;;;;;;;;;5110175;27;20862;-86
2023/01/31 13:31:19;;;;;;;19.23;4.50;;;;;;;;;;5109141;27;20495;-87
2023/01/31 13:33:53;;;;;;;13.48;3.97;;;;;;;;;;5123144;27;20428;-86
2023/01/31 13:36:23;;;;;;;18.73;4.07;;;;;;;;;;5102780;28;20511;-86
2023/01/31 13:38:51;;;;;;;15.00;3.97;;;;;;;;;;5103915;27;20466;-87
2023/01/31 13:41:28;;;;;;;15.80;3.80;;;;;;;;;;5124762;27;20422;-87
2023/01/31 13:43:55;;;;;;;15.80;4.00;;;;;;;;;;5135057;27;20982;-87
2023/01/31 13:46:24;;;;;;;18.45;3.38;;;;;;;;;;5115240;27;20454;-86
2023/01/31 13:48:59;;;;;;;19.90;4.00;;;;;;;;;;5134439;27;20446;-88
2023/01/31 13:51:47;;;;;;;18.52;4.40;;;;;;;;;;5101620;28;20441;-88
2023/01/31 13:54:13;;;;;;;17.60;4.00;;;;;;;;;;5117227;28;20400;-87
2023/01/31 13:56:40;;;;;;;17.88;4.20;;;;;;;;;;5100909;28;20869;-87
2023/01/31 13:59:08;;;;;;;19.00;4.57;;;;;;;;;;5121893;28;20410;-88
2023/01/31 14:01:36;;;;;;;19.57;4.30;;;;;;;;;;5123636;28;20484;-88
2023/01/31 14:04:12;;;;;;;12.67;3.70;;;;;;;;;;5111620;28;20420;-81
2023/01/31 14:06:57;;;;;;;17.27;3.80;;;;;;;;;;5096670;28;20444;-78
2023/01/31 14:09:23;;;;;;;18.40;3.92;;;;;;;;;;5128955;28;20439;-78
2023/01/31 14:11:50;;;;;;;17.33;4.00;;;;;;;;;;5102169;28;20640;-79
2023/01/31 14:14:29;;;;;;;16.10;3.73;;;9.00;99.90;;;;;;5112182;28;20408;-79
2023/01/31 14:16:57;;;;;;;16.95;4.10;;;;;;;;;;5098460;28;20421;-79
2023/01/31 14:19:49;;;;;;;15.32;3.97;;;8.90;99.90;;;;;;5100821;27;20453;-78
2023/01/31 14:22:17;;;;;;;18.88;4.15;;;;;;;;;;5118027;27;20447;-78
2023/01/31 14:24:48;;;;;;;20.77;4.32;;;;;;;;;;5115756;28;20407;-78
2023/01/31 14:27:26;;;;;;;18.30;4.57;;;;;;;;;;5098049;28;20412;-79
2023/01/31 14:30:07;;;;;;;18.57;4.37;;;;;;;;;;5110367;28;20942;-79
2023/01/31 14:32:35;;;;;;;18.13;4.22;;;;;;;;;;5114392;28;20420;-78
2023/01/31 14:35:09;;;;;;;17.00;4.35;;;;;;;;;;5112467;28;20495;-79
2023/01/31 14:37:55;;;;;;;19.02;4.65;;;;;;;;;;5114577;27;20503;-87
2023/01/31 14:40:21;;;;;;;18.70;4.35;;;;;;;;;;5131816;27;20420;-83
2023/01/31 14:43:07;;;;;;;18.85;4.88;;;;;;;;;;5135240;27;20412;-86
2023/01/31 14:45:41;;;;;;;18.50;6.03;;;;;;;;;;5107303;27;20415;-86
2023/01/31 14:48:07;;;;;;;21.63;5.38;;;;;;;;;;5114819;27;20410;-86
2023/01/31 14:50:56;;;;;;;22.38;5.25;;;;;;;;;;5129383;27;20439;-86
2023/01/31 14:53:26;;;;;;;27.88;6.22;;;;;;;;;;5109320;27;20414;-87
2023/01/31 14:55:58;;;;;;;20.88;4.82;;;;;;;;;;5126754;27;20422;-86
2023/01/31 14:58:27;;;;;;;23.17;4.68;;;8.90;99.90;;;;;;5107768;28;20435;-85
2023/01/31 15:00:59;;;;;;;26.27;4.70;;;;;;;;;;5117975;27;20414;-87
2023/01/31 15:03:27;;;;;;;20.02;4.63;;;;;;;;;;5146580;27;20414;-88